sensor_id;sensor_type;location;lat;lon;timestamp;pressure;altitude;pressure_sealevel;temperature;humidity
55066;BME280;40964;42.114;24.220;2023-02-18T00:01:24;98540.75;;;6.53;50.89
55066;BME280;40964;42.114;24.220;2023-02-18T00:03:50;98536.00;;;6.57;50.40
55066;BME280;40964;42.114;24.220;2023-02-18T00:06:25;98542.13;;;6.64;50.19
55066;BME280;40964;42.114;24.220;2023-02-18T00:08:51;98536.91;;;6.64;49.90
55066;BME280;40964;42.114;24.220;2023-02-18T00:11:19;98532.84;;;6.61;50.28
55066;BME280;40964;42.114;24.220;2023-02-18T00:13:54;98523.38;;;6.60;50.46
55066;BME280;40964;42.114;24.220;2023-02-18T00:16:20;98517.84;;;6.55;49.80
55066;BME280;40964;42.114;24.220;2023-02-18T00:18:47;98520.19;;;6.50;50.61
55066;BME280;40964;42.114;24.220;2023-02-18T00:21:12;98528.25;;;6.40;51.18
55066;BME280;40964;42.114;24.220;2023-02-18T00:23:38;98529.22;;;6.39;50.60
55066;BME280;40964;42.114;24.220;2023-02-18T00:26:22;98530.94;;;6.24;51.88
55066;BME280;40964;42.114;24.220;2023-02-18T00:28:48;98531.31;;;6.13;51.65
55066;BME280;40964;42.114;24.220;2023-02-18T00:33:45;98535.06;;;6.10;50.50
55066;BME280;40964;42.114;24.220;2023-02-18T00:36:14;98536.38;;;6.06;50.67
55066;BME280;40964;42.114;24.220;2023-02-18T00:38:44;98524.50;;;6.04;51.05
55066;BME280;40964;42.114;24.220;2023-02-18T00:41:10;98520.41;;;6.01;50.47
55066;BME280;40964;42.114;24.220;2023-02-18T00:43:35;98521.69;;;6.13;50.01
55066;BME280;40964;42.114;24.220;2023-02-18T00:46:01;98514.63;;;6.22;50.19
55066;BME280;40964;42.114;24.220;2023-02-18T00:48:27;98510.84;;;6.24;49.94
55066;BME280;40964;42.114;24.220;2023-02-18T00:50:52;98507.56;;;6.31;49.97
55066;BME280;40964;42.114;24.220;2023-02-18T00:53:17;98486.94;;;6.36;49.29
55066;BME280;40964;42.114;24.220;2023-02-18T00:55:44;98493.28;;;6.41;49.43
55066;BME280;40964;42.114;24.220;2023-02-18T00:58:12;98490.25;;;6.30;49.53
55066;BME280;40964;42.114;24.220;2023-02-18T01:00:38;98482.56;;;6.28;49.96
55066;BME280;40964;42.114;24.220;2023-02-18T01:03:04;98474.28;;;6.24;49.81
55066;BME280;40964;42.114;24.220;2023-02-18T01:05:32;98465.50;;;6.17;50.02
55066;BME280;40964;42.114;24.220;2023-02-18T01:07:58;98454.00;;;6.04;50.99
55066;BME280;40964;42.114;24.220;2023-02-18T01:10:23;98456.94;;;6.01;51.01
55066;BME280;40964;42.114;24.220;2023-02-18T01:12:49;98447.19;;;5.86;51.23
55066;BME280;40964;42.114;24.220;2023-02-18T01:15:16;98448.50;;;5.90;50.79
55066;BME280;40964;42.114;24.220;2023-02-18T01:17:41;98436.13;;;5.84;50.92
55066;BME280;40964;42.114;24.220;2023-02-18T01:20:08;98426.69;;;5.75;51.80
55066;BME280;40964;42.114;24.220;2023-02-18T01:22:35;98436.28;;;5.75;51.86
55066;BME280;40964;42.114;24.220;2023-02-18T01:25:01;98429.66;;;5.64;51.82
55066;BME280;40964;42.114;24.220;2023-02-18T01:27:27;98431.47;;;5.63;52.69
55066;BME280;40964;42.114;24.220;2023-02-18T01:29:53;98428.84;;;5.63;52.31
55066;BME280;40964;42.114;24.220;2023-02-18T01:32:19;98419.44;;;5.54;51.72
55066;BME280;40964;42.114;24.220;2023-02-18T01:34:44;98423.31;;;5.66;51.88
55066;BME280;40964;42.114;24.220;2023-02-18T01:37:11;98416.13;;;5.68;51.83
55066;BME280;40964;42.114;24.220;2023-02-18T01:39:36;98416.97;;;5.61;51.87
55066;BME280;40964;42.114;24.220;2023-02-18T01:42:02;98404.47;;;5.48;52.56
55066;BME280;40964;42.114;24.220;2023-02-18T01:44:28;98416.22;;;5.36;53.91
55066;BME280;40964;42.114;24.220;2023-02-18T01:46:54;98419.03;;;5.18;53.96
55066;BME280;40964;42.114;24.220;2023-02-18T01:49:27;98420.19;;;5.16;54.62
55066;BME280;40964;42.114;24.220;2023-02-18T01:51:59;98429.38;;;4.95;54.84
55066;BME280;40964;42.114;24.220;2023-02-18T01:54:31;98414.22;;;4.82;54.60
55066;BME280;40964;42.114;24.220;2023-02-18T01:59:40;98445.13;;;5.18;52.64
55066;BME280;40964;42.114;24.220;2023-02-18T02:02:12;98444.97;;;5.11;53.23
55066;BME280;40964;42.114;24.220;2023-02-18T02:04:38;98444.31;;;5.01;53.50
55066;BME280;40964;42.114;24.220;2023-02-18T02:07:04;98439.63;;;4.89;53.85
55066;BME280;40964;42.114;24.220;2023-02-18T02:09:31;98453.81;;;4.86;54.49
55066;BME280;40964;42.114;24.220;2023-02-18T02:36:35;98462.41;;;4.46;57.35
55066;BME280;40964;42.114;24.220;2023-02-18T02:53:30;98454.72;;;5.26;53.35
55066;BME280;40964;42.114;24.220;2023-02-18T02:55:56;98450.94;;;5.36;52.99
55066;BME280;40964;42.114;24.220;2023-02-18T02:58:22;98444.56;;;5.47;52.99
55066;BME280;40964;42.114;24.220;2023-02-18T03:01:17;98446.81;;;5.58;52.75
55066;BME280;40964;42.114;24.220;2023-02-18T03:04:08;98451.31;;;5.73;52.02
55066;BME280;40964;42.114;24.220;2023-02-18T03:12:19;98443.09;;;5.92;51.33
55066;BME280;40964;42.114;24.220;2023-02-18T03:17:50;98409.03;;;5.93;51.74
55066;BME280;40964;42.114;24.220;2023-02-18T03:20:34;98434.22;;;6.09;51.82
55066;BME280;40964;42.114;24.220;2023-02-18T03:23:03;98425.91;;;6.06;51.66
55066;BME280;40964;42.114;24.220;2023-02-18T03:25:32;98415.25;;;6.15;51.49
55066;BME280;40964;42.114;24.220;2023-02-18T03:28:08;98407.53;;;6.22;50.41
55066;BME280;40964;42.114;24.220;2023-02-18T03:30:42;98403.06;;;6.31;50.15
55066;BME280;40964;42.114;24.220;2023-02-18T03:33:13;98398.25;;;6.42;49.88
55066;BME280;40964;42.114;24.220;2023-02-18T03:35:41;98383.03;;;6.46;49.30
55066;BME280;40964;42.114;24.220;2023-02-18T03:40:45;98390.03;;;6.68;48.24
55066;BME280;40964;42.114;24.220;2023-02-18T03:43:11;98388.88;;;6.71;47.86
55066;BME280;40964;42.114;24.220;2023-02-18T03:45:37;98393.72;;;6.74;48.27
55066;BME280;40964;42.114;24.220;2023-02-18T03:48:03;98411.44;;;6.87;47.82
55066;BME280;40964;42.114;24.220;2023-02-18T03:50:28;98410.91;;;6.91;47.45
55066;BME280;40964;42.114;24.220;2023-02-18T03:52:54;98423.66;;;6.71;48.18
55066;BME280;40964;42.114;24.220;2023-02-18T03:55:19;98430.19;;;6.52;48.20
55066;BME280;40964;42.114;24.220;2023-02-18T03:57:45;98439.75;;;6.37;49.13
55066;BME280;40964;42.114;24.220;2023-02-18T04:00:11;98451.16;;;6.13;49.53
55066;BME280;40964;42.114;24.220;2023-02-18T04:02:37;98458.72;;;6.00;50.62
55066;BME280;40964;42.114;24.220;2023-02-18T04:05:02;98451.28;;;5.81;50.61
55066;BME280;40964;42.114;24.220;2023-02-18T04:07:28;98460.31;;;5.70;51.38
55066;BME280;40964;42.114;24.220;2023-02-18T04:09:53;98474.94;;;5.79;51.03
55066;BME280;40964;42.114;24.220;2023-02-18T04:12:19;98479.72;;;5.76;50.66
55066;BME280;40964;42.114;24.220;2023-02-18T04:14:44;98492.38;;;5.87;49.93
55066;BME280;40964;42.114;24.220;2023-02-18T04:17:10;98483.28;;;5.75;50.50
55066;BME280;40964;42.114;24.220;2023-02-18T04:19:35;98504.00;;;5.76;50.69
55066;BME280;40964;42.114;24.220;2023-02-18T04:22:04;98507.09;;;5.72;51.53
55066;BME280;40964;42.114;24.220;2023-02-18T04:24:29;98496.38;;;5.66;50.24
55066;BME280;40964;42.114;24.220;2023-02-18T04:26:55;98489.22;;;5.60;50.89
55066;BME280;40964;42.114;24.220;2023-02-18T04:29:21;98490.50;;;5.56;51.41
55066;BME280;40964;42.114;24.220;2023-02-18T04:31:46;98506.94;;;5.65;51.29
55066;BME280;40964;42.114;24.220;2023-02-18T04:34:12;98510.69;;;5.70;51.47
55066;BME280;40964;42.114;24.220;2023-02-18T04:36:37;98502.25;;;5.60;52.25
55066;BME280;40964;42.114;24.220;2023-02-18T04:39:03;98498.84;;;5.52;52.74
55066;BME280;40964;42.114;24.220;2023-02-18T04:41:28;98501.13;;;5.47;52.49
55066;BME280;40964;42.114;24.220;2023-02-18T04:43:54;98490.69;;;5.47;52.49
55066;BME280;40964;42.114;24.220;2023-02-18T04:46:20;98488.75;;;5.49;52.75
55066;BME280;40964;42.114;24.220;2023-02-18T04:48:45;98485.00;;;5.51;52.70
55066;BME280;40964;42.114;24.220;2023-02-18T04:51:11;98471.94;;;5.51;52.26
55066;BME280;40964;42.114;24.220;2023-02-18T04:53:36;98468.81;;;5.56;52.81
55066;BME280;40964;42.114;24.220;2023-02-18T04:56:02;98462.44;;;5.66;52.53
55066;BME280;40964;42.114;24.220;2023-02-18T04:58:27;98456.03;;;5.77;52.22
55066;BME280;40964;42.114;24.220;2023-02-18T05:00:58;98463.31;;;5.98;51.49
55066;BME280;40964;42.114;24.220;2023-02-18T05:03:23;98454.28;;;6.09;51.27
55066;BME280;40964;42.114;24.220;2023-02-18T05:05:49;98451.50;;;6.10;50.91
55066;BME280;40964;42.114;24.220;2023-02-18T05:08:14;98454.00;;;6.04;50.76
55066;BME280;40964;42.114;24.220;2023-02-18T05:10:40;98450.44;;;5.96;50.74
55066;BME280;40964;42.114;24.220;2023-02-18T05:13:06;98449.41;;;6.06;50.78
55066;BME280;40964;42.114;24.220;2023-02-18T05:15:31;98434.47;;;6.22;49.51
55066;BME280;40964;42.114;24.220;2023-02-18T05:17:57;98452.81;;;6.37;49.33
55066;BME280;40964;42.114;24.220;2023-02-18T05:20:22;98457.34;;;6.20;50.45
55066;BME280;40964;42.114;24.220;2023-02-18T05:22:48;98450.38;;;6.13;51.06
55066;BME280;40964;42.114;24.220;2023-02-18T05:25:13;98446.66;;;6.30;50.46
55066;BME280;40964;42.114;24.220;2023-02-18T05:27:39;98448.06;;;6.41;49.56
55066;BME280;40964;42.114;24.220;2023-02-18T05:30:05;98436.19;;;6.38;49.60
55066;BME280;40964;42.114;24.220;2023-02-18T05:32:30;98440.91;;;6.35;51.14
55066;BME280;40964;42.114;24.220;2023-02-18T05:34:55;98446.25;;;6.41;50.64
55066;BME280;40964;42.114;24.220;2023-02-18T05:37:21;98443.34;;;6.36;50.73
55066;BME280;40964;42.114;24.220;2023-02-18T05:39:47;98430.09;;;6.38;50.09
55066;BME280;40964;42.114;24.220;2023-02-18T05:42:12;98442.78;;;6.49;50.12
55066;BME280;40964;42.114;24.220;2023-02-18T05:44:38;98445.63;;;6.62;50.15
55066;BME280;40964;42.114;24.220;2023-02-18T05:47:09;98450.78;;;6.70;49.72
55066;BME280;40964;42.114;24.220;2023-02-18T05:49:36;98450.91;;;6.77;49.32
55066;BME280;40964;42.114;24.220;2023-02-18T05:52:02;98451.72;;;6.77;48.94
55066;BME280;40964;42.114;24.220;2023-02-18T05:54:29;98453.78;;;6.82;48.64
55066;BME280;40964;42.114;24.220;2023-02-18T05:56:54;98438.28;;;6.80;48.91
55066;BME280;40964;42.114;24.220;2023-02-18T05:59:20;98451.41;;;6.95;48.35
55066;BME280;40964;42.114;24.220;2023-02-18T06:01:46;98448.53;;;7.05;47.92
55066;BME280;40964;42.114;24.220;2023-02-18T06:04:12;98447.84;;;7.11;47.61
55066;BME280;40964;42.114;24.220;2023-02-18T06:06:37;98449.00;;;7.23;46.75
55066;BME280;40964;42.114;24.220;2023-02-18T06:09:04;98455.81;;;7.47;45.83
55066;BME280;40964;42.114;24.220;2023-02-18T06:11:30;98455.25;;;7.66;45.63
55066;BME280;40964;42.114;24.220;2023-02-18T06:13:55;98448.94;;;7.76;44.73
55066;BME280;40964;42.114;24.220;2023-02-18T06:16:21;98459.38;;;7.90;45.65
55066;BME280;40964;42.114;24.220;2023-02-18T06:18:46;98444.59;;;7.83;44.79
55066;BME280;40964;42.114;24.220;2023-02-18T06:21:12;98464.09;;;7.95;44.40
55066;BME280;40964;42.114;24.220;2023-02-18T06:23:37;98462.91;;;7.97;44.03
55066;BME280;40964;42.114;24.220;2023-02-18T06:26:03;98468.50;;;8.09;43.82
55066;BME280;40964;42.114;24.220;2023-02-18T06:28:29;98476.59;;;8.14;43.55
55066;BME280;40964;42.114;24.220;2023-02-18T06:30:54;98475.97;;;8.27;43.94
55066;BME280;40964;42.114;24.220;2023-02-18T06:33:19;98469.34;;;8.31;43.98
55066;BME280;40964;42.114;24.220;2023-02-18T06:35:59;98484.78;;;8.26;44.66
55066;BME280;40964;42.114;24.220;2023-02-18T06:38:25;98477.00;;;8.33;45.30
55066;BME280;40964;42.114;24.220;2023-02-18T06:40:51;98468.06;;;8.42;46.11
55066;BME280;40964;42.114;24.220;2023-02-18T06:43:17;98467.94;;;8.50;45.86
55066;BME280;40964;42.114;24.220;2023-02-18T06:45:43;98467.41;;;8.55;44.39
55066;BME280;40964;42.114;24.220;2023-02-18T06:48:09;98456.59;;;8.64;45.14
55066;BME280;40964;42.114;24.220;2023-02-18T06:50:35;98447.28;;;8.83;45.10
55066;BME280;40964;42.114;24.220;2023-02-18T06:53:01;98438.84;;;8.88;45.36
55066;BME280;40964;42.114;24.220;2023-02-18T06:55:26;98426.72;;;8.87;44.89
55066;BME280;40964;42.114;24.220;2023-02-18T06:57:51;98427.25;;;9.03;44.60
55066;BME280;40964;42.114;24.220;2023-02-18T07:00:17;98414.63;;;9.14;44.44
55066;BME280;40964;42.114;24.220;2023-02-18T07:02:43;98412.84;;;9.21;45.61
55066;BME280;40964;42.114;24.220;2023-02-18T07:05:08;98409.69;;;9.32;43.70
55066;BME280;40964;42.114;24.220;2023-02-18T07:07:34;98403.88;;;9.43;43.02
55066;BME280;40964;42.114;24.220;2023-02-18T07:09:59;98405.19;;;9.60;43.97
55066;BME280;40964;42.114;24.220;2023-02-18T07:12:25;98403.84;;;9.78;43.18
55066;BME280;40964;42.114;24.220;2023-02-18T07:14:51;98390.38;;;9.94;43.15
55066;BME280;40964;42.114;24.220;2023-02-18T07:17:16;98392.03;;;10.08;44.70
55066;BME280;40964;42.114;24.220;2023-02-18T07:19:42;98393.72;;;10.22;42.96
55066;BME280;40964;42.114;24.220;2023-02-18T07:22:07;98395.38;;;10.37;42.84
55066;BME280;40964;42.114;24.220;2023-02-18T07:24:33;98402.25;;;10.44;43.83
55066;BME280;40964;42.114;24.220;2023-02-18T07:26:58;98396.81;;;10.52;45.35
55066;BME280;40964;42.114;24.220;2023-02-18T07:29:23;98396.00;;;10.72;44.01
55066;BME280;40964;42.114;24.220;2023-02-18T07:31:49;98399.03;;;10.95;43.40
55066;BME280;40964;42.114;24.220;2023-02-18T07:34:14;98399.00;;;11.22;42.86
55066;BME280;40964;42.114;24.220;2023-02-18T07:36:40;98407.25;;;11.38;41.51
55066;BME280;40964;42.114;24.220;2023-02-18T07:39:06;98408.28;;;11.51;39.17
55066;BME280;40964;42.114;24.220;2023-02-18T07:41:32;98407.47;;;11.50;44.08
55066;BME280;40964;42.114;24.220;2023-02-18T07:43:57;98408.91;;;11.33;46.06
55066;BME280;40964;42.114;24.220;2023-02-18T07:46:23;98398.19;;;11.21;46.50
55066;BME280;40964;42.114;24.220;2023-02-18T07:48:48;98393.56;;;11.03;46.65
55066;BME280;40964;42.114;24.220;2023-02-18T07:51:14;98393.97;;;10.74;46.36
55066;BME280;40964;42.114;24.220;2023-02-18T07:53:39;98399.22;;;11.00;46.87
55066;BME280;40964;42.114;24.220;2023-02-18T07:56:05;98378.13;;;11.20;46.82
55066;BME280;40964;42.114;24.220;2023-02-18T07:58:33;98381.94;;;11.37;47.27
55066;BME280;40964;42.114;24.220;2023-02-18T08:01:02;98377.66;;;11.50;46.56
55066;BME280;40964;42.114;24.220;2023-02-18T08:03:30;98373.53;;;11.67;42.76
55066;BME280;40964;42.114;24.220;2023-02-18T08:05:57;98363.69;;;12.01;41.13
55066;BME280;40964;42.114;24.220;2023-02-18T08:08:25;98369.38;;;12.29;40.31
55066;BME280;40964;42.114;24.220;2023-02-18T08:10:52;98367.84;;;12.46;38.60
55066;BME280;40964;42.114;24.220;2023-02-18T08:13:18;98368.41;;;12.55;38.79
55066;BME280;40964;42.114;24.220;2023-02-18T08:15:44;98367.81;;;12.53;36.83
55066;BME280;40964;42.114;24.220;2023-02-18T08:18:15;98366.31;;;12.64;39.46
55066;BME280;40964;42.114;24.220;2023-02-18T08:20:41;98363.41;;;12.72;38.90
55066;BME280;40964;42.114;24.220;2023-02-18T08:23:06;98362.84;;;12.88;39.84
55066;BME280;40964;42.114;24.220;2023-02-18T08:25:32;98355.94;;;13.12;40.95
55066;BME280;40964;42.114;24.220;2023-02-18T08:27:58;98356.63;;;13.26;39.13
55066;BME280;40964;42.114;24.220;2023-02-18T08:30:24;98352.81;;;13.40;36.71
55066;BME280;40964;42.114;24.220;2023-02-18T08:32:50;98354.84;;;13.56;35.96
55066;BME280;40964;42.114;24.220;2023-02-18T08:35:15;98351.59;;;13.73;36.00
55066;BME280;40964;42.114;24.220;2023-02-18T08:37:41;98348.94;;;13.91;37.25
55066;BME280;40964;42.114;24.220;2023-02-18T08:40:07;98343.53;;;13.86;32.73
55066;BME280;40964;42.114;24.220;2023-02-18T08:42:33;98361.88;;;13.81;33.34
55066;BME280;40964;42.114;24.220;2023-02-18T08:44:58;98356.75;;;13.86;34.29
55066;BME280;40964;42.114;24.220;2023-02-18T08:47:24;98357.69;;;13.73;34.54
55066;BME280;40964;42.114;24.220;2023-02-18T08:49:51;98370.78;;;13.68;34.34
55066;BME280;40964;42.114;24.220;2023-02-18T08:52:17;98376.69;;;13.82;35.49
55066;BME280;40964;42.114;24.220;2023-02-18T08:54:42;98371.94;;;13.72;38.10
55066;BME280;40964;42.114;24.220;2023-02-18T08:57:08;98388.25;;;13.69;37.50
55066;BME280;40964;42.114;24.220;2023-02-18T08:59:33;98388.88;;;13.83;35.88
55066;BME280;40964;42.114;24.220;2023-02-18T09:01:59;98390.28;;;14.04;35.23
55066;BME280;40964;42.114;24.220;2023-02-18T09:04:25;98388.31;;;14.29;36.19
55066;BME280;40964;42.114;24.220;2023-02-18T09:06:51;98390.00;;;14.24;35.09
55066;BME280;40964;42.114;24.220;2023-02-18T09:09:16;98388.59;;;14.51;35.30
55066;BME280;40964;42.114;24.220;2023-02-18T09:11:42;98386.84;;;14.45;34.35
55066;BME280;40964;42.114;24.220;2023-02-18T09:14:08;98386.44;;;14.48;34.42
55066;BME280;40964;42.114;24.220;2023-02-18T09:16:34;98382.91;;;14.66;34.40
55066;BME280;40964;42.114;24.220;2023-02-18T09:18:59;98389.22;;;14.76;34.85
55066;BME280;40964;42.114;24.220;2023-02-18T09:21:25;98387.06;;;14.97;34.39
55066;BME280;40964;42.114;24.220;2023-02-18T09:23:51;98384.53;;;15.14;33.79
55066;BME280;40964;42.114;24.220;2023-02-18T09:26:18;98378.66;;;15.23;33.41
55066;BME280;40964;42.114;24.220;2023-02-18T09:28:47;98379.06;;;15.44;33.56
55066;BME280;40964;42.114;24.220;2023-02-18T09:31:16;98377.22;;;15.68;33.39
55066;BME280;40964;42.114;24.220;2023-02-18T09:33:44;98375.69;;;15.72;32.41
55066;BME280;40964;42.114;24.220;2023-02-18T09:36:11;98365.63;;;15.85;32.31
55066;BME280;40964;42.114;24.220;2023-02-18T09:38:36;98364.50;;;16.10;31.62
55066;BME280;40964;42.114;24.220;2023-02-18T09:41:05;98359.94;;;16.22;30.75
55066;BME280;40964;42.114;24.220;2023-02-18T09:43:37;98353.88;;;16.55;31.40
55066;BME280;40964;42.114;24.220;2023-02-18T09:46:03;98349.56;;;16.83;31.73
55066;BME280;40964;42.114;24.220;2023-02-18T09:48:35;98339.22;;;16.86;31.01
55066;BME280;40964;42.114;24.220;2023-02-18T09:51:01;98336.66;;;16.58;30.00
55066;BME280;40964;42.114;24.220;2023-02-18T09:53:27;98350.31;;;16.33;29.91
55066;BME280;40964;42.114;24.220;2023-02-18T09:55:54;98344.56;;;16.24;30.38
55066;BME280;40964;42.114;24.220;2023-02-18T09:58:25;98345.31;;;16.20;31.00
55066;BME280;40964;42.114;24.220;2023-02-18T10:01:09;98350.50;;;16.14;31.57
55066;BME280;40964;42.114;24.220;2023-02-18T10:03:37;98357.19;;;16.17;31.63
55066;BME280;40964;42.114;24.220;2023-02-18T10:06:06;98349.78;;;16.02;31.30
55066;BME280;40964;42.114;24.220;2023-02-18T10:08:41;98333.44;;;15.94;30.61
55066;BME280;40964;42.114;24.220;2023-02-18T10:13:59;98331.06;;;16.26;32.93
55066;BME280;40964;42.114;24.220;2023-02-18T10:16:27;98310.50;;;16.50;32.15
55066;BME280;40964;42.114;24.220;2023-02-18T10:18:56;98313.22;;;16.88;31.25
55066;BME280;40964;42.114;24.220;2023-02-18T10:21:27;98306.03;;;17.06;31.57
55066;BME280;40964;42.114;24.220;2023-02-18T10:24:01;98308.75;;;17.11;29.17
55066;BME280;40964;42.114;24.220;2023-02-18T10:26:29;98292.81;;;17.11;30.02
55066;BME280;40964;42.114;24.220;2023-02-18T10:28:56;98303.75;;;17.14;29.80
55066;BME280;40964;42.114;24.220;2023-02-18T10:31:29;98303.19;;;17.34;29.82
55066;BME280;40964;42.114;24.220;2023-02-18T10:36:46;98284.28;;;17.52;29.63
55066;BME280;40964;42.114;24.220;2023-02-18T10:49:57;98254.69;;;18.25;29.18
55066;BME280;40964;42.114;24.220;2023-02-18T10:52:24;98261.28;;;18.22;29.95
55066;BME280;40964;42.114;24.220;2023-02-18T10:57:23;98263.78;;;18.02;28.66
55066;BME280;40964;42.114;24.220;2023-02-18T11:02:37;98254.22;;;17.74;29.30
55066;BME280;40964;42.114;24.220;2023-02-18T11:05:19;98242.06;;;17.83;28.70
55066;BME280;40964;42.114;24.220;2023-02-18T11:07:50;98249.06;;;17.89;28.54
55066;BME280;40964;42.114;24.220;2023-02-18T11:10:21;98250.81;;;18.10;28.88
55066;BME280;40964;42.114;24.220;2023-02-18T11:12:54;98243.53;;;18.33;29.67
55066;BME280;40964;42.114;24.220;2023-02-18T11:15:23;98251.38;;;18.50;29.78
55066;BME280;40964;42.114;24.220;2023-02-18T11:18:10;98232.78;;;18.55;30.50
55066;BME280;40964;42.114;24.220;2023-02-18T11:20:37;98250.81;;;18.80;30.24
55066;BME280;40964;42.114;24.220;2023-02-18T11:25:36;98230.50;;;19.31;28.88
55066;BME280;40964;42.114;24.220;2023-02-18T11:28:05;98221.78;;;19.51;28.26
55066;BME280;40964;42.114;24.220;2023-02-18T11:30:37;98214.28;;;19.48;28.07
55066;BME280;40964;42.114;24.220;2023-02-18T11:33:08;98223.31;;;19.37;27.08
55066;BME280;40964;42.114;24.220;2023-02-18T11:35:37;98223.06;;;19.38;27.81
55066;BME280;40964;42.114;24.220;2023-02-18T11:38:22;98203.94;;;19.62;27.98
55066;BME280;40964;42.114;24.220;2023-02-18T11:40:54;98210.09;;;19.88;28.29
55066;BME280;40964;42.114;24.220;2023-02-18T11:43:20;98212.22;;;20.01;29.76
55066;BME280;40964;42.114;24.220;2023-02-18T11:45:45;98207.16;;;19.99;27.75
55066;BME280;40964;42.114;24.220;2023-02-18T11:48:22;98209.25;;;19.67;27.38
55066;BME280;40964;42.114;24.220;2023-02-18T11:50:52;98213.97;;;19.29;28.06
55066;BME280;40964;42.114;24.220;2023-02-18T11:53:30;98211.53;;;19.22;28.16
55066;BME280;40964;42.114;24.220;2023-02-18T11:56:04;98205.66;;;19.15;27.76
55066;BME280;40964;42.114;24.220;2023-02-18T11:58:38;98204.34;;;19.28;27.79
55066;BME280;40964;42.114;24.220;2023-02-18T12:01:11;98203.59;;;19.43;29.49
55066;BME280;40964;42.114;24.220;2023-02-18T12:03:42;98198.00;;;19.49;28.07
55066;BME280;40964;42.114;24.220;2023-02-18T12:06:31;98191.41;;;19.72;29.21
55066;BME280;40964;42.114;24.220;2023-02-18T12:09:17;98187.41;;;20.00;28.52
55066;BME280;40964;42.114;24.220;2023-02-18T12:11:52;98184.22;;;20.13;28.47
55066;BME280;40964;42.114;24.220;2023-02-18T12:14:21;98175.88;;;20.30;29.65
55066;BME280;40964;42.114;24.220;2023-02-18T12:17:14;98178.84;;;20.44;29.24
55066;BME280;40964;42.114;24.220;2023-02-18T12:25:25;98156.13;;;20.36;29.42
55066;BME280;40964;42.114;24.220;2023-02-18T12:28:21;98146.22;;;20.37;30.10
55066;BME280;40964;42.114;24.220;2023-02-18T12:56:40;98114.75;;;20.98;27.89
55066;BME280;40964;42.114;24.220;2023-02-18T13:13:42;98100.56;;;21.03;28.85
55066;BME280;40964;42.114;24.220;2023-02-18T13:16:13;98095.16;;;21.13;28.33
55066;BME280;40964;42.114;24.220;2023-02-18T13:18:44;98104.25;;;21.12;28.70
55066;BME280;40964;42.114;24.220;2023-02-18T13:21:14;98104.13;;;20.83;29.42
55066;BME280;40964;42.114;24.220;2023-02-18T13:23:56;98113.50;;;20.81;29.54
55066;BME280;40964;42.114;24.220;2023-02-18T13:26:23;98107.97;;;20.67;30.04
55066;BME280;40964;42.114;24.220;2023-02-18T13:34:49;98111.53;;;20.32;29.74
55066;BME280;40964;42.114;24.220;2023-02-18T13:37:30;98111.53;;;20.27;30.21
55066;BME280;40964;42.114;24.220;2023-02-18T13:39:58;98104.28;;;20.37;30.45
55066;BME280;40964;42.114;24.220;2023-02-18T13:47:41;98096.53;;;20.46;30.82
55066;BME280;40964;42.114;24.220;2023-02-18T13:52:56;98099.75;;;20.38;30.80
55066;BME280;40964;42.114;24.220;2023-02-18T13:55:38;98084.25;;;20.50;30.39
55066;BME280;40964;42.114;24.220;2023-02-18T13:58:12;98097.06;;;20.53;30.50
55066;BME280;40964;42.114;24.220;2023-02-18T14:00:41;98085.06;;;20.46;29.54
55066;BME280;40964;42.114;24.220;2023-02-18T14:03:49;98086.13;;;20.50;30.13
55066;BME280;40964;42.114;24.220;2023-02-18T14:08:45;98085.00;;;20.56;30.17
55066;BME280;40964;42.114;24.220;2023-02-18T14:16:25;98082.19;;;20.11;30.65
55066;BME280;40964;42.114;24.220;2023-02-18T14:18:59;98077.69;;;19.92;31.58
55066;BME280;40964;42.114;24.220;2023-02-18T14:21:40;98084.91;;;19.91;31.46
55066;BME280;40964;42.114;24.220;2023-02-18T14:24:09;98067.53;;;19.99;32.06
55066;BME280;40964;42.114;24.220;2023-02-18T14:26:39;98075.28;;;20.05;31.72
55066;BME280;40964;42.114;24.220;2023-02-18T14:29:13;98069.16;;;19.84;31.73
55066;BME280;40964;42.114;24.220;2023-02-18T14:31:44;98070.25;;;19.68;31.78
55066;BME280;40964;42.114;24.220;2023-02-18T14:37:03;98068.06;;;19.40;32.63
55066;BME280;40964;42.114;24.220;2023-02-18T14:50:14;98052.28;;;18.82;33.69
55066;BME280;40964;42.114;24.220;2023-02-18T14:57:49;98052.97;;;18.52;34.37
55066;BME280;40964;42.114;24.220;2023-02-18T15:00:26;98055.63;;;18.52;34.74
55066;BME280;40964;42.114;24.220;2023-02-18T15:02:57;98054.50;;;18.38;34.98
55066;BME280;40964;42.114;24.220;2023-02-18T15:05:30;98061.44;;;18.39;34.71
55066;BME280;40964;42.114;24.220;2023-02-18T15:08:13;98075.78;;;18.33;34.72
55066;BME280;40964;42.114;24.220;2023-02-18T15:10:42;98069.38;;;18.29;34.84
55066;BME280;40964;42.114;24.220;2023-02-18T15:13:27;98077.56;;;18.17;35.11
55066;BME280;40964;42.114;24.220;2023-02-18T15:15:56;98073.81;;;18.08;35.38
55066;BME280;40964;42.114;24.220;2023-02-18T15:18:33;98069.78;;;18.05;35.26
55066;BME280;40964;42.114;24.220;2023-02-18T15:21:05;98081.16;;;17.96;35.29
55066;BME280;40964;42.114;24.220;2023-02-18T15:23:34;98084.03;;;17.84;35.38
55066;BME280;40964;42.114;24.220;2023-02-18T15:26:01;98087.41;;;17.74;35.50
55066;BME280;40964;42.114;24.220;2023-02-18T15:28:29;98082.84;;;17.70;36.02
55066;BME280;40964;42.114;24.220;2023-02-18T15:31:00;98080.41;;;17.68;36.25
55066;BME280;40964;42.114;24.220;2023-02-18T15:33:26;98085.19;;;17.66;35.79
55066;BME280;40964;42.114;24.220;2023-02-18T15:36:05;98079.63;;;17.68;36.25
55066;BME280;40964;42.114;24.220;2023-02-18T15:38:31;98087.81;;;17.61;36.64
55066;BME280;40964;42.114;24.220;2023-02-18T15:40:57;98093.09;;;17.56;36.65
55066;BME280;40964;42.114;24.220;2023-02-18T15:43:24;98091.91;;;17.42;36.82
55066;BME280;40964;42.114;24.220;2023-02-18T15:45:54;98092.13;;;17.35;37.06
55066;BME280;40964;42.114;24.220;2023-02-18T15:48:45;98080.81;;;17.18;37.79